Map

Track Data

SID SEASON NUMBER BASIN SUBBASIN NAME ISO_TIME NATURE LAT LON WMO_WIND WMO_PRES WMO_AGENCY TRACK_TYPE DIST2LAND LANDFALL IFLAG USA_AGENCY USA_ATCF_ID USA_LAT USA_LON USA_RECORD USA_STATUS USA_WIND USA_PRES USA_SSHS USA_R34_NE USA_R34_SE USA_R34_SW USA_R34_NW USA_R50_NE USA_R50_SE USA_R50_SW USA_R50_NW USA_R64_NE USA_R64_SE USA_R64_SW USA_R64_NW USA_POCI USA_ROCI USA_RMW USA_EYE TOKYO_LAT TOKYO_LON TOKYO_GRADE TOKYO_WIND TOKYO_PRES TOKYO_R50_DIR TOKYO_R50_LONG TOKYO_R50_SHORT TOKYO_R30_DIR TOKYO_R30_LONG TOKYO_R30_SHORT TOKYO_LAND CMA_LAT CMA_LON CMA_CAT CMA_WIND CMA_PRES HKO_LAT HKO_LON HKO_CAT HKO_WIND HKO_PRES NEWDELHI_LAT NEWDELHI_LON NEWDELHI_GRADE NEWDELHI_WIND NEWDELHI_PRES NEWDELHI_CI NEWDELHI_DP NEWDELHI_POCI REUNION_LAT REUNION_LON REUNION_TYPE REUNION_WIND REUNION_PRES REUNION_TNUM REUNION_CI REUNION_RMW REUNION_R34_NE REUNION_R34_SE REUNION_R34_SW REUNION_R34_NW REUNION_R50_NE REUNION_R50_SE REUNION_R50_SW REUNION_R50_NW REUNION_R64_NE REUNION_R64_SE REUNION_R64_SW REUNION_R64_NW BOM_LAT BOM_LON BOM_TYPE BOM_WIND BOM_PRES BOM_TNUM BOM_CI BOM_RMW BOM_R34_NE BOM_R34_SE BOM_R34_SW BOM_R34_NW BOM_R50_NE BOM_R50_SE BOM_R50_SW BOM_R50_NW BOM_R64_NE BOM_R64_SE BOM_R64_SW BOM_R64_NW BOM_ROCI BOM_POCI BOM_EYE BOM_POS_METHOD BOM_PRES_METHOD NADI_LAT NADI_LON NADI_CAT NADI_WIND NADI_PRES WELLINGTON_LAT WELLINGTON_LON WELLINGTON_WIND WELLINGTON_PRES DS824_LAT DS824_LON DS824_STAGE DS824_WIND DS824_PRES TD9636_LAT TD9636_LON TD9636_STAGE TD9636_WIND TD9636_PRES TD9635_LAT TD9635_LON TD9635_WIND TD9635_PRES TD9635_ROCI NEUMANN_LAT NEUMANN_LON NEUMANN_CLASS NEUMANN_WIND NEUMANN_PRES MLC_LAT MLC_LON MLC_CLASS MLC_WIND MLC_PRES USA_GUST BOM_GUST BOM_GUST_PER REUNION_GUST REUNION_GUST_PER USA_SEAHGT USA_SEARAD_NE USA_SEARAD_SE USA_SEARAD_SW USA_SEARAD_NW STORM_SPEED STORM_DIR
1898263N21089 1898 41 NI BB NOT_NAMED 1898-09-20 00:00:00 TS 20.9000 88.6000 main 78 55 _________O____ -1 20.9000 88.6000 TC 30 6 326
1898263N21089 1898 41 NI BB NOT_NAMED 1898-09-20 03:00:00 TS 21.1317 88.4302 main 55 22 _________PO___ -1 21.2476 88.3453 TC 30 20.9000 88.6000 1 7 327
1898263N21089 1898 41 NI BB NOT_NAMED 1898-09-20 06:00:00 TS 21.4651 88.2066 main 11 10 _________OP___ -1 21.6000 88.1000 TC 30 21.2628 88.3666 1 8 328
1898263N21089 1898 41 NI BB NOT_NAMED 1898-09-20 09:00:00 TS 21.8129 87.9768 main 10 0 _________PP___ -1 21.9574 87.8648 TC 30 21.6204 88.1261 1 8 327
1898263N21089 1898 41 NI BB NOT_NAMED 1898-09-20 12:00:00 TS 22.1339 87.7363 main 0 0 _________OP___ -1 22.3000 87.6000 TC 30 21.9678 87.8726 1 8 322
1898263N21089 1898 41 NI BB NOT_NAMED 1898-09-20 15:00:00 TS 22.4538 87.4324 main 0 0 _________PO___ -1 22.6075 87.2649 TC 30 22.3000 87.6000 1 9 317
1898263N21089 1898 41 NI BB NOT_NAMED 1898-09-20 18:00:00 TS 22.7570 87.1012 main 0 0 _________OP___ -1 22.9000 86.9000 TC 30 22.6140 87.3024 1 9 315
1898263N21089 1898 41 NI BB NOT_NAMED 1898-09-20 21:00:00 TS 23.0571 86.7731 main 0 0 _________PP___ -1 23.1998 86.5722 TC 30 22.9144 86.9739 1 9 313
1898263N21089 1898 41 NI BB NOT_NAMED 1898-09-21 00:00:00 TS 23.3538 86.4042 main 0 0 _________OP___ -1 23.5000 86.2000 TC 30 23.2076 86.6085 1 10 308
1898263N21089 1898 41 NI BB NOT_NAMED 1898-09-21 03:00:00 TS 23.6500 85.9612 main 0 0 _________PO___ -1 23.8000 85.7224 TC 30 23.5000 86.2000 1 10 305
1898263N21089 1898 41 NI BB NOT_NAMED 1898-09-21 06:00:00 TS 23.9499 85.4794 main 0 0 _________OP___ -1 24.1000 85.2000 TC 30 23.7997 85.7588 1 11 304
1898263N21089 1898 41 NI BB NOT_NAMED 1898-09-21 09:00:00 TS 24.2496 84.9944 main 0 0 _________PP___ -1 24.3997 84.7146 TC 30 24.0995 85.2741 1 11 303
1898263N21089 1898 41 NI BB NOT_NAMED 1898-09-21 12:00:00 TS 24.5498 84.4762 main 0 0 _________OP___ -1 24.7000 84.2000 TC 30 24.3995 84.7524 1 12 301
1898263N21089 1898 41 NI BB NOT_NAMED 1898-09-21 15:00:00 TS 24.8500 83.9074 main 0 0 _________PO___ -1 24.9999 83.6148 TC 30 24.7000 84.2000 1 12 300
1898263N21089 1898 41 NI BB NOT_NAMED 1898-09-21 18:00:00 TS 25.1669 83.2806 main 0 0 _________OP___ -1 25.3000 83.0000 TC 30 25.0338 83.5612 1 13 299
1898263N21089 1898 41 NI BB NOT_NAMED 1898-09-21 21:00:00 TS 25.4962 82.6188 main 0 0 _________PP___ -1 25.6304 82.3329 TC 30 25.3620 82.9047 1 13 299
1898263N21089 1898 41 NI BB NOT_NAMED 1898-09-22 00:00:00 TS 25.7795 82.0478 main 0 0 _________OP___ -1 25.9000 81.8000 TC 30 25.6589 82.2956 1 10 299
1898263N21089 1898 41 NI BB NOT_NAMED 1898-09-22 03:00:00 TS 25.9648 81.6947 main 0 0 _________PO___ -1 26.0295 81.5894 TC 30 25.9000 81.8000 1 6 302
1898263N21089 1898 41 NI BB NOT_NAMED 1898-09-22 06:00:00 TS 26.0779 81.5066 main 0 0 _________OP___ -1 26.1000 81.5000 TC 30 26.0558 81.5131 1 4 303
1898263N21089 1898 41 NI BB NOT_NAMED 1898-09-22 09:00:00 TS 26.1790 81.3289 main 0 0 _________PP___ -1 26.2000 81.3150 TC 30 26.1580 81.3428 1 4 301
1898263N21089 1898 41 NI BB NOT_NAMED 1898-09-22 12:00:00 TS 26.2656 81.1631 main 0 0 _________OP___ -1 26.3000 81.1000 TC 30 26.2313 81.2262 1 4 299
1898263N21089 1898 41 NI BB NOT_NAMED 1898-09-22 15:00:00 TS 26.3500 80.9787 main 0 0 _________PO___ -1 26.4000 80.8575 TC 30 26.3000 81.1000 1 4 296
1898263N21089 1898 41 NI BB NOT_NAMED 1898-09-22 18:00:00 TS 26.4334 80.7797 main 0 0 _________OP___ -1 26.5000 80.6000 TC 30 26.3835 80.9144 1 4 295
1898263N21089 1898 41 NI BB NOT_NAMED 1898-09-22 21:00:00 TS 26.5288 80.5433 main 0 0 _________PP___ -1 26.6001 80.3476 TC 30 26.4814 80.6738 1 5 294
1898263N21089 1898 41 NI BB NOT_NAMED 1898-09-23 00:00:00 TS 26.6257 80.2975 main 0 0 _________OP___ -1 26.7000 80.1000 TC 30 26.5885 80.3963 1 4 293
1898263N21089 1898 41 NI BB NOT_NAMED 1898-09-23 03:00:00 NR 26.7000 80.1000 main 0 __________O___ -1 TC 26.7000 80.1000 1 4 293

About IBTrACS Database

This database is a web-friendly format of International Best Track Archive for Climate Stewardship (IBTrACS), a global best track data archive curated by NOAA dating back to 1842.

Updated: 2021-10-25